Time;durP1;ratioP1;P1;durP2;ratioP2;P2;SDS_P1;SDS_P2;PMS_P1;PMS_P2;Temp;Humidity;BMP_temperature;BMP_pressure;BME280_temperature;BME280_humidity;BME280_pressure;Samples;Min_cycle;Max_cycle;Signal;HPM_P1;HPM_P2
2022/07/13 00:01:46;;;;;;;;;;;;;;;;;;4975157;28;8406;-85
2022/07/13 00:04:12;;;;;;;;;;;;;;;;;;4974617;28;8350;-86
2022/07/13 00:06:38;;;;;;;;;;;;;;;;;;4974838;28;8420;-85
2022/07/13 00:09:03;;;;;;;;;;;;;;;;;;4974906;28;8392;-82
2022/07/13 00:11:29;;;;;;;;;;;;;;;;;;4974829;28;7166;-84
2022/07/13 00:13:55;;;;;;;;;;;;;;;;;;4974733;28;8383;-85
2022/07/13 00:16:21;;;;;;;;;;;;;;;;;;4974858;28;8418;-85
2022/07/13 00:18:47;;;;;;;;;;;;;;;;;;4974625;28;7153;-84
2022/07/13 00:21:13;;;;;;;;;;;;;;;;;;4974670;28;7184;-85
2022/07/13 00:23:39;;;;;;;;;;;;;;;;;;4974967;28;8398;-86
2022/07/13 00:26:04;;;;;;;;;;;;;;;;;;4974773;28;8436;-85
2022/07/13 00:28:30;;;;;;;;;;;;;;;;;;4974119;28;8407;-81
2022/07/13 00:30:55;;;;;;;;;;;;;;;;;;4974706;28;7055;-85
2022/07/13 00:33:21;;;;;;;;;;;;;;;;;;4974569;28;8816;-84
2022/07/13 00:35:46;;;;;;;;;;;;;;;;;;4974502;28;8762;-85
2022/07/13 00:38:12;;;;;;;;;;;;;;;;;;4974375;28;8911;-85
2022/07/13 00:40:37;;;;;;;;;;;;;;;;;;4974580;28;8480;-84
2022/07/13 00:43:03;;;;;;;;;;;;;;;;;;4974487;28;7430;-85
2022/07/13 00:45:29;;;;;;;;;;;;;;;;;;4974366;28;8936;-86
2022/07/13 00:47:55;;;;;;;;;;;;;;;;;;4974425;28;7163;-85
2022/07/13 00:50:21;;;;;;;;;;;;;;;;;;4974335;28;7113;-85
2022/07/13 00:52:47;;;;;;;;;;;;;;;;;;4974895;28;8412;-85
2022/07/13 00:55:14;;;;;;;;;;;;;;;;;;4974721;28;7070;-85
2022/07/13 00:57:39;;;;;;;;;;;;;;;;;;4974386;28;7169;-84
2022/07/13 01:00:08;;;;;;;;;;;;;;;;;;4974399;28;8399;-85
2022/07/13 01:02:37;;;;;;;;;;;;;;;;;;4974609;28;8411;-85
2022/07/13 01:05:03;;;;;;;;;;;;;;;;;;5112680;23;8433;-85
2022/07/13 01:07:33;;;;;;;;;;;;;;;;;;4919753;29;7054;-86
2022/07/13 01:10:05;;;;;;;;;;;;;;;;;;4920279;29;8356;-85
2022/07/13 01:12:32;;;;;;;;;;;;;;;;;;4920179;29;7042;-84
2022/07/13 01:14:57;;;;;;;;;;;;;;;;;;4920543;29;8323;-86
2022/07/13 01:17:24;;;;;;;;;;;;;;;;;;4920421;29;8430;-85
2022/07/13 01:19:51;;;;;;;;;;;;;;;;;;4920280;29;7035;-85
2022/07/13 01:22:20;;;;;;;;;;;;;;;;;;4921114;29;7186;-85
2022/07/13 01:24:47;;;;;;;;;;;;;;;;;;4920136;29;6998;-85
2022/07/13 01:27:13;;;;;;;;;;;;;;;;;;4920439;29;7216;-86
2022/07/13 01:29:40;;;;;;;;;;;;;;;;;;4920635;29;7192;-85
2022/07/13 01:32:05;;;;;;;;;;;;;;;;;;4920623;29;8607;-84
2022/07/13 01:34:31;;;;;;;;;;;;;;;;;;4920861;29;7133;-88
2022/07/13 01:36:58;;;;;;;;;;;;;;;;;;4920266;29;7000;-85
2022/07/13 01:39:24;;;;;;;;;;;;;;;;;;4919816;29;7151;-86
2022/07/13 01:41:50;;;;;;;;;;;;;;;;;;4920116;29;8391;-85
2022/07/13 01:44:16;;;;;;;;;;;;;;;;;;4919951;29;7044;-85
2022/07/13 01:46:42;;;;;;;;;;;;;;;;;;4920494;29;7288;-85
2022/07/13 01:49:07;;;;;;;;;;;;;;;;;;4920229;29;7084;-86
2022/07/13 01:51:33;;;;;;;;;;;;;;;;;;4920497;29;8229;-87
2022/07/13 01:53:58;;;;;;;;;;;;;;;;;;4919625;29;7139;-86
2022/07/13 01:56:24;;;;;;;;;;;;;;;;;;4919906;29;8338;-83
2022/07/13 01:58:49;;;;;;;;;;;;;;;;;;4919414;29;8942;-86
2022/07/13 02:01:15;;;;;;;;;;;;;;;;;;4919708;29;7330;-85
2022/07/13 02:03:41;;;;;;;;;;;;;;;;;;4922420;29;7254;-85
2022/07/13 02:06:06;;;;;;;;;;;;;;;;;;4939689;29;7093;-85
2022/07/13 02:08:32;;;;;;;;;;;;;;;;;;4938931;29;7621;-86
2022/07/13 02:10:58;;;;;;;;;;;;;;;;;;4938507;29;6978;-85
2022/07/13 02:13:24;;;;;;;;;;;;;;;;;;4938679;29;8645;-84
2022/07/13 02:15:50;;;;;;;;;;;;;;;;;;4938498;29;6945;-86
2022/07/13 02:18:16;;;;;;;;;;;;;;;;;;4937728;29;8331;-85
2022/07/13 02:20:42;;;;;;;;;;;;;;;;;;4938227;29;8698;-86
2022/07/13 02:23:08;;;;;;;;;;;;;;;;;;4939690;29;8802;-83
2022/07/13 02:25:34;;;;;;;;;;;;;;;;;;4938055;29;8445;-87
2022/07/13 02:28:00;;;;;;;;;;;;;;;;;;4938276;29;8528;-85
2022/07/13 02:30:25;;;;;;;;;;;;;;;;;;4938201;29;8335;-85
2022/07/13 02:32:52;;;;;;;;;;;;;;;;;;4937930;29;7112;-85
2022/07/13 02:35:18;;;;;;;;;;;;;;;;;;4937933;29;8411;-84
2022/07/13 02:37:44;;;;;;;;;;;;;;;;;;4937745;29;8389;-86
2022/07/13 02:40:10;;;;;;;;;;;;;;;;;;4938437;29;7573;-85
2022/07/13 02:42:36;;;;;;;;;;;;;;;;;;4938060;29;7009;-85
2022/07/13 02:45:03;;;;;;;;;;;;;;;;;;4937955;29;8499;-85
2022/07/13 02:47:28;;;;;;;;;;;;;;;;;;4937721;29;8411;-86
2022/07/13 02:49:54;;;;;;;;;;;;;;;;;;4937517;29;8399;-86
2022/07/13 02:52:20;;;;;;;;;;;;;;;;;;4938063;29;8749;-86
2022/07/13 02:54:46;;;;;;;;;;;;;;;;;;4937174;29;8489;-85
2022/07/13 02:57:12;;;;;;;;;;;;;;;;;;4937481;29;8909;-86
2022/07/13 02:59:37;;;;;;;;;;;;;;;;;;4937813;29;8394;-85
2022/07/13 03:02:04;;;;;;;;;;;;;;;;;;4937486;29;7172;-84
2022/07/13 03:04:31;;;;;;;;;;;;;;;;;;4937401;29;8439;-86
2022/07/13 03:06:56;;;;;;;;;;;;;;;;;;4937250;29;7091;-85
2022/07/13 03:09:22;;;;;;;;;;;;;;;;;;4937202;29;7320;-85
2022/07/13 03:11:48;;;;;;;;;;;;;;;;;;4938025;29;7160;-86
2022/07/13 03:14:13;;;;;;;;;;;;;;;;;;4937050;29;8377;-86
2022/07/13 03:16:39;;;;;;;;;;;;;;;;;;4938160;29;8569;-86
2022/07/13 03:19:04;;;;;;;;;;;;;;;;;;4937185;29;8805;-83
2022/07/13 03:21:30;;;;;;;;;;;;;;;;;;4937182;29;8369;-85
2022/07/13 03:23:56;;;;;;;;;;;;;;;;;;4937391;29;7304;-85
2022/07/13 03:26:22;;;;;;;;;;;;;;;;;;4937047;29;8517;-85
2022/07/13 03:28:48;;;;;;;;;;;;;;;;;;4936980;29;8372;-85
2022/07/13 03:31:14;;;;;;;;;;;;;;;;;;4936517;29;8589;-86
2022/07/13 03:33:39;;;;;;;;;;;;;;;;;;4936875;29;8418;-86
2022/07/13 03:36:05;;;;;;;;;;;;;;;;;;4936843;29;8388;-85
2022/07/13 03:38:31;;;;;;;;;;;;;;;;;;4936628;29;8688;-85
2022/07/13 03:40:57;;;;;;;;;;;;;;;;;;4936883;29;8399;-85
2022/07/13 03:43:22;;;;;;;;;;;;;;;;;;4936746;29;7050;-86
2022/07/13 03:45:48;;;;;;;;;;;;;;;;;;4937006;29;8480;-86
2022/07/13 03:48:16;;;;;;;;;;;;;;;;;;4936589;29;7434;-85
2022/07/13 03:50:42;;;;;;;;;;;;;;;;;;4937073;29;7144;-84
2022/07/13 03:53:08;;;;;;;;;;;;;;;;;;4936935;29;8525;-84
2022/07/13 03:55:33;;;;;;;;;;;;;;;;;;4936975;29;7133;-83
2022/07/13 03:57:59;;;;;;;;;;;;;;;;;;4936816;29;6821;-85
2022/07/13 04:00:25;;;;;;;;;;;;;;;;;;4936289;29;8410;-85
2022/07/13 04:02:51;;;;;;;;;;;;;;;;;;4936376;29;8477;-85
2022/07/13 04:05:16;;;;;;;;;;;;;;;;;;4936304;29;8713;-85
2022/07/13 04:07:42;;;;;;;;;;;;;;;;;;4936788;29;8384;-85
2022/07/13 04:10:08;;;;;;;;;;;;;;;;;;4936199;29;7165;-84
2022/07/13 04:12:33;;;;;;;;;;;;;;;;;;4936831;29;8779;-84
2022/07/13 04:14:59;;;;;;;;;;;;;;;;;;4936616;29;8344;-84
2022/07/13 04:17:24;;;;;;;;;;;;;;;;;;4936557;29;8402;-85
2022/07/13 04:19:50;;;;;;;;;;;;;;;;;;4936339;29;8717;-85
2022/07/13 04:22:15;;;;;;;;;;;;;;;;;;4936551;29;8397;-84
2022/07/13 04:24:41;;;;;;;;;;;;;;;;;;4936273;29;8652;-85
2022/07/13 04:27:07;;;;;;;;;;;;;;;;;;4936310;29;8706;-85
2022/07/13 04:29:32;;;;;;;;;;;;;;;;;;4936120;29;9260;-84
2022/07/13 04:31:58;;;;;;;;;;;;;;;;;;4936501;29;7157;-84
2022/07/13 04:34:24;;;;;;;;;;;;;;;;;;4936249;29;9269;-85
2022/07/13 04:36:50;;;;;;;;;;;;;;;;;;4936526;29;7052;-85
2022/07/13 04:39:15;;;;;;;;;;;;;;;;;;4935846;29;8494;-84
2022/07/13 04:41:41;;;;;;;;;;;;;;;;;;4938549;29;7115;-85
2022/07/13 04:44:06;;;;;;;;;;;;;;;;;;4939693;29;8484;-84
2022/07/13 04:46:32;;;;;;;;;;;;;;;;;;4939916;29;8399;-84
2022/07/13 04:48:58;;;;;;;;;;;;;;;;;;4939937;29;7144;-85
2022/07/13 04:51:23;;;;;;;;;;;;;;;;;;4940142;29;8695;-84
2022/07/13 04:53:49;;;;;;;;;;;;;;;;;;4939813;29;7027;-85
2022/07/13 04:56:15;;;;;;;;;;;;;;;;;;4939604;29;8890;-86
2022/07/13 04:58:41;;;;;;;;;;;;;;;;;;4939951;29;8568;-84
2022/07/13 05:01:07;;;;;;;;;;;;;;;;;;4939721;29;8383;-85
2022/07/13 05:03:33;;;;;;;;;;;;;;;;;;4940046;29;8657;-85
2022/07/13 05:05:59;;;;;;;;;;;;;;;;;;4939811;29;8541;-85
2022/07/13 05:08:25;;;;;;;;;;;;;;;;;;4939732;29;7515;-87
2022/07/13 05:10:51;;;;;;;;;;;;;;;;;;4939908;29;8901;-85
2022/07/13 05:13:16;;;;;;;;;;;;;;;;;;4939379;29;8308;-85
2022/07/13 05:15:42;;;;;;;;;;;;;;;;;;4939576;29;8731;-85
2022/07/13 05:18:07;;;;;;;;;;;;;;;;;;4939272;29;8506;-85
2022/07/13 05:20:33;;;;;;;;;;;;;;;;;;4939219;29;8938;-84
2022/07/13 05:22:59;;;;;;;;;;;;;;;;;;4939240;29;8433;-85
2022/07/13 05:25:24;;;;;;;;;;;;;;;;;;4935432;28;8382;-80
2022/07/13 05:27:50;;;;;;;;;;;;;;;;;;4958485;28;7258;-83
2022/07/13 05:30:15;;;;;;;;;;;;;;;;;;4935616;28;8390;-83
2022/07/13 05:32:44;;;;;;;;;;;;;;;;;;4929509;28;8739;-85
2022/07/13 05:35:10;;;;;;;;;;;;;;;;;;4963440;28;7127;-85
2022/07/13 05:37:36;;;;;;;;;;;;;;;;;;4956871;28;7146;-82
2022/07/13 05:40:07;;;;;;;;;;;;;;;;;;4955832;28;8280;-82
2022/07/13 05:42:33;;;;;;;;;;;;;;;;;;4957171;28;8328;-81
2022/07/13 05:44:58;;;;;;;;;;;;;;;;;;4948433;28;7063;-85
2022/07/13 05:47:24;;;;;;;;;;;;;;;;;;4933720;29;8414;-85
2022/07/13 05:49:49;;;;;;;;;;;;;;;;;;4937583;29;8438;-85
2022/07/13 05:52:15;;;;;;;;;;;;;;;;;;4937880;29;9299;-86
2022/07/13 05:54:40;;;;;;;;;;;;;;;;;;4937716;29;8760;-81
2022/07/13 05:57:06;;;;;;;;;;;;;;;;;;4937445;29;8446;-85
2022/07/13 05:59:33;;;;;;;;;;;;;;;;;;4937562;29;8520;-84
2022/07/13 06:01:59;;;;;;;;;;;;;;;;;;4936268;29;8464;-85
2022/07/13 06:04:24;;;;;;;;;;;;;;;;;;4948536;28;8408;-84
2022/07/13 06:06:50;;;;;;;;;;;;;;;;;;4949709;28;8304;-82
2022/07/13 06:09:18;;;;;;;;;;;;;;;;;;4934150;29;8426;-85
2022/07/13 06:11:46;;;;;;;;;;;;;;;;;;4936943;29;7154;-85
2022/07/13 06:14:12;;;;;;;;;;;;;;;;;;4922493;29;8443;-86
2022/07/13 06:16:38;;;;;;;;;;;;;;;;;;4937754;29;7148;-85
2022/07/13 06:19:04;;;;;;;;;;;;;;;;;;4920802;29;9246;-85
2022/07/13 06:21:29;;;;;;;;;;;;;;;;;;4937360;29;8485;-83
2022/07/13 06:23:55;;;;;;;;;;;;;;;;;;4922131;29;7085;-85
2022/07/13 06:26:20;;;;;;;;;;;;;;;;;;4920943;29;8501;-86
2022/07/13 06:28:46;;;;;;;;;;;;;;;;;;4938188;29;8422;-76
2022/07/13 06:31:11;;;;;;;;;;;;;;;;;;4937571;29;9651;-87
2022/07/13 06:33:37;;;;;;;;;;;;;;;;;;4937040;29;7160;-86
2022/07/13 06:36:02;;;;;;;;;;;;;;;;;;4937246;29;8429;-86
2022/07/13 06:38:28;;;;;;;;;;;;;;;;;;4936674;29;8469;-87
2022/07/13 06:40:53;;;;;;;;;;;;;;;;;;4936559;29;8532;-83
2022/07/13 06:43:19;;;;;;;;;;;;;;;;;;4937266;29;9127;-84
2022/07/13 06:45:45;;;;;;;;;;;;;;;;;;4936904;29;8456;-84
2022/07/13 06:48:10;;;;;;;;;;;;;;;;;;4931700;29;8302;-88
2022/07/13 06:50:36;;;;;;;;;;;;;;;;;;4928002;29;8299;-85
2022/07/13 06:53:02;;;;;;;;;;;;;;;;;;4925359;29;8618;-84
2022/07/13 06:55:29;;;;;;;;;;;;;;;;;;4933953;29;8333;-85
2022/07/13 06:57:55;;;;;;;;;;;;;;;;;;4937076;29;8500;-84
2022/07/13 07:00:21;;;;;;;;;;;;;;;;;;4936248;29;7063;-84
2022/07/13 07:02:47;;;;;;;;;;;;;;;;;;4936681;29;8624;-86
2022/07/13 07:05:14;;;;;;;;;;;;;;;;;;4935429;29;7176;-85
2022/07/13 07:07:40;;;;;;;;;;;;;;;;;;4936841;29;8563;-86
2022/07/13 07:10:07;;;;;;;;;;;;;;;;;;4936080;29;8427;-86
2022/07/13 07:12:32;;;;;;;;;;;;;;;;;;4931292;29;8437;-84
2022/07/13 07:14:58;;;;;;;;;;;;;;;;;;4936574;29;8492;-85
2022/07/13 07:17:23;;;;;;;;;;;;;;;;;;4935123;29;7256;-82
2022/07/13 07:19:49;;;;;;;;;;;;;;;;;;4933803;29;7078;-81
2022/07/13 07:22:14;;;;;;;;;;;;;;;;;;4933955;29;8571;-85
2022/07/13 07:24:40;;;;;;;;;;;;;;;;;;4935723;29;8475;-84
2022/07/13 07:27:07;;;;;;;;;;;;;;;;;;4931929;29;7476;-80
2022/07/13 07:29:38;;;;;;;;;;;;;;;;;;4932644;29;7190;-86
2022/07/13 07:32:04;;;;;;;;;;;;;;;;;;4930326;29;6883;-85
2022/07/13 07:34:30;;;;;;;;;;;;;;;;;;4932452;29;8626;-83
2022/07/13 07:36:55;;;;;;;;;;;;;;;;;;4931994;29;8601;-81
2022/07/13 07:39:22;;;;;;;;;;;;;;;;;;4928267;29;8472;-85
2022/07/13 07:41:48;;;;;;;;;;;;;;;;;;4931904;29;8703;-83
2022/07/13 07:44:13;;;;;;;;;;;;;;;;;;4932918;29;8624;-86
2022/07/13 07:46:39;;;;;;;;;;;;;;;;;;4932574;29;8446;-84
2022/07/13 07:49:05;;;;;;;;;;;;;;;;;;4935670;29;8348;-84
2022/07/13 07:51:30;;;;;;;;;;;;;;;;;;4938332;29;8788;-83
2022/07/13 07:53:56;;;;;;;;;;;;;;;;;;4935796;29;7261;-84
2022/07/13 07:56:22;;;;;;;;;;;;;;;;;;4942997;29;7086;-83
2022/07/13 07:58:47;;;;;;;;;;;;;;;;;;4938919;29;8470;-88
2022/07/13 08:01:13;;;;;;;;;;;;;;;;;;4942207;29;8857;-82
2022/07/13 08:03:38;;;;;;;;;;;;;;;;;;4933012;29;8442;-83
2022/07/13 08:06:04;;;;;;;;;;;;;;;;;;4927825;29;8395;-86
2022/07/13 08:08:30;;;;;;;;;;;;;;;;;;4931465;28;8447;-87
2022/07/13 08:10:55;;;;;;;;;;;;;;;;;;4932879;29;8479;-87
2022/07/13 08:13:21;;;;;;;;;;;;;;;;;;4934087;29;9563;-85
2022/07/13 08:15:47;;;;;;;;;;;;;;;;;;4933279;29;8873;-86
2022/07/13 08:18:12;;;;;;;;;;;;;;;;;;4931182;29;8817;-84
2022/07/13 08:20:38;;;;;;;;;;;;;;;;;;4943362;28;8733;-84
2022/07/13 08:23:50;;;;;;;;;;;;;;;;;;4949565;29;8808;-86
2022/07/13 08:25:49;;;;;;;;;;;;;;;;;;4953793;29;7335;-83
2022/07/13 08:28:14;;;;;;;;;;;;;;;;;;4933295;29;8549;-80
2022/07/13 08:30:41;;;;;;;;;;;;;;;;;;4952434;29;8452;-81
2022/07/13 08:33:06;;;;;;;;;;;;;;;;;;4953467;29;8817;-86
2022/07/13 08:47:35;;;;;;;;;;;;;;;;;;5071739;28;6997;-57
2022/07/13 08:50:29;;;;;;;;;;;;;;;;;;5051440;28;7098;-57
2022/07/13 08:52:54;;;;;;;;;;;;;;;;;;5051237;28;8925;-56
2022/07/13 08:55:30;;;;;;;;;;;;;;;;;;5051549;28;7012;-57
2022/07/13 08:57:55;;;;;;;;;;;;;;;;;;5050827;28;7359;-57
2022/07/13 09:03:39;;;;;;;;;;;;;;;;;;5051124;28;7047;-57
2022/07/13 09:06:04;;;;;;;;;;;;;;;;;;5049996;28;9069;-58
2022/07/13 09:08:45;;;;;;;;;;;;;;;;;;5050069;28;7132;-57
2022/07/13 09:11:11;;;;;;;;;;;;;;;;;;5050330;28;7326;-57
2022/07/13 09:16:39;;;;;;;;;;;;;;;;;;5050112;28;6779;-57
2022/07/13 09:19:05;;;;;;;;;;;;;;;;;;5049324;28;8784;-56
2022/07/13 09:21:45;;;;;;;;;;;;;;;;;;5051062;28;6971;-57
2022/07/13 09:24:10;;;;;;;;;;;;;;;;;;5049321;28;7256;-57
2022/07/13 09:55:28;;;;;;;;;;;;;;;;;;5071876;28;7010;-62
2022/07/13 09:57:57;;;;;;;;;;;;;;;;;;5051416;28;7235;-58
2022/07/13 10:00:23;;;;;;;;;;;;;;;;;;5051120;28;7334;-58
2022/07/13 10:02:50;;;;;;;;;;;;;;;;;;5051079;28;7107;-58
2022/07/13 10:05:35;;;;;;;;;;;;;;;;;;5051501;28;8555;-58
2022/07/13 10:08:01;;;;;;;;;;;;;;;;;;5049197;28;7478;-60
2022/07/13 10:11:01;;;;;;;;;;;;;;;;;;5051666;28;7054;-60
2022/07/13 10:13:27;;;;;;;;;;;;;;;;;;5050948;28;7056;-60
2022/07/13 10:16:00;;;;;;;;;;;;;;;;;;5045442;28;7490;-60
2022/07/13 10:18:32;;;;;;;;;;;;;;;;;;5046275;28;7324;-60
2022/07/13 10:21:22;;;;;;;;;;;;;;;;;;5049190;28;7223;-60
2022/07/13 10:23:48;;;;;;;;;;;;;;;;;;5043708;28;7610;-60
2022/07/13 10:26:31;;;;;;;;;;;;;;;;;;5049088;28;7524;-60
2022/07/13 10:29:05;;;;;;;;;;;;;;;;;;5046696;28;7506;-60
2022/07/13 10:31:33;;;;;;;;;;;;;;;;;;5046902;28;7237;-60
2022/07/13 10:34:00;;;;;;;;;;;;;;;;;;5049531;28;7121;-60
2022/07/13 10:37:01;;;;;;;;;;;;;;;;;;5050864;28;7147;-60
2022/07/13 10:39:29;;;;;;;;;;;;;;;;;;5049287;28;7275;-60
2022/07/13 10:47:46;;;;;;;;;;;;;;;;;;5032449;28;8360;-60
2022/07/13 10:50:16;;;;;;;;;;;;;;;;;;5047546;28;8709;-61
2022/07/13 10:52:42;;;;;;;;;;;;;;;;;;5047169;28;7118;-61
2022/07/13 10:55:11;;;;;;;;;;;;;;;;;;5042685;28;7373;-60
2022/07/13 10:58:00;;;;;;;;;;;;;;;;;;5035184;28;7039;-60
2022/07/13 11:00:43;;;;;;;;;;;;;;;;;;5036507;28;7157;-60
2022/07/13 11:03:37;;;;;;;;;;;;;;;;;;5035480;28;7600;-60
2022/07/13 11:06:12;;;;;;;;;;;;;;;;;;5035079;28;6931;-60
2022/07/13 11:08:38;;;;;;;;;;;;;;;;;;5028389;28;7066;-60
2022/07/13 11:11:24;;;;;;;;;;;;;;;;;;5035235;28;7006;-60
2022/07/13 11:13:50;;;;;;;;;;;;;;;;;;5033323;28;7112;-60
2022/07/13 11:22:11;;;;;;;;;;;;;;;;;;5035524;28;7090;-61
2022/07/13 11:27:56;;;;;;;;;;;;;;;;;;5036433;28;7140;-61
2022/07/13 11:30:26;;;;;;;;;;;;;;;;;;5035276;28;7118;-61
2022/07/13 11:32:53;;;;;;;;;;;;;;;;;;5036251;28;7255;-60
2022/07/13 11:35:20;;;;;;;;;;;;;;;;;;5036159;28;7042;-60
2022/07/13 11:37:48;;;;;;;;;;;;;;;;;;5035631;28;7925;-60
2022/07/13 11:40:30;;;;;;;;;;;;;;;;;;5032714;28;7244;-61
2022/07/13 11:42:58;;;;;;;;;;;;;;;;;;5034572;28;7259;-60
2022/07/13 11:45:33;;;;;;;;;;;;;;;;;;5034264;28;7298;-60
2022/07/13 11:48:03;;;;;;;;;;;;;;;;;;5033502;28;7077;-60
2022/07/13 11:50:48;;;;;;;;;;;;;;;;;;5034231;28;7154;-60
2022/07/13 11:53:21;;;;;;;;;;;;;;;;;;5035479;28;7397;-61
2022/07/13 11:55:47;;;;;;;;;;;;;;;;;;5031761;28;7057;-61
2022/07/13 11:58:23;;;;;;;;;;;;;;;;;;5034523;28;7357;-61
2022/07/13 12:00:50;;;;;;;;;;;;;;;;;;5034460;28;7057;-60
2022/07/13 12:03:24;;;;;;;;;;;;;;;;;;5035638;28;7290;-60
2022/07/13 12:05:49;;;;;;;;;;;;;;;;;;5035003;28;7292;-60
2022/07/13 12:08:16;;;;;;;;;;;;;;;;;;5034260;28;7479;-60
2022/07/13 12:10:42;;;;;;;;;;;;;;;;;;5034667;28;7330;-60
2022/07/13 12:13:08;;;;;;;;;;;;;;;;;;5034791;28;7162;-60
2022/07/13 12:15:34;;;;;;;;;;;;;;;;;;5044721;23;7259;-87
2022/07/13 12:18:04;;;;;;;;;;;;;;;;;;5055547;28;9434;-87
2022/07/13 12:20:32;;;;;;;;;;;;;;;;;;5057035;28;8543;-85
2022/07/13 12:22:58;;;;;;;;;;;;;;;;;;5052482;28;8605;-87
2022/07/13 12:25:23;;;;;;;;;;;;;;;;;;5055539;28;8518;-88
2022/07/13 12:27:52;;;;;;;;;;;;;;;;;;5035665;28;7189;-86
2022/07/13 12:30:18;;;;;;;;;;;;;;;;;;5035227;28;7145;-88
2022/07/13 12:33:05;;;;;;;;;;;;;;;;;;5016432;28;8490;-89
2022/07/13 12:35:38;;;;;;;;;;;;;;;;;;5046593;28;8606;-89
2022/07/13 12:38:07;;;;;;;;;;;;;;;;;;5039535;28;8574;-88
2022/07/13 12:40:55;;;;;;;;;;;;;;;;;;5042970;28;8492;-85
2022/07/13 12:43:25;;;;;;;;;;;;;;;;;;5041435;28;8540;-87
2022/07/13 12:45:58;;;;;;;;;;;;;;;;;;5041200;28;9282;-85
2022/07/13 12:48:26;;;;;;;;;;;;;;;;;;5039957;28;8969;-86
2022/07/13 12:50:54;;;;;;;;;;;;;;;;;;5030984;28;7475;-87
2022/07/13 12:53:20;;;;;;;;;;;;;;;;;;5049613;28;7107;-85
2022/07/13 12:55:55;;;;;;;;;;;;;;;;;;5031026;28;8677;-85
2022/07/13 12:58:41;;;;;;;;;;;;;;;;;;5039827;28;8570;-85
2022/07/13 13:01:07;;;;;;;;;;;;;;;;;;5043648;28;8877;-85
2022/07/13 13:03:32;;;;;;;;;;;;;;;;;;5043318;28;8828;-85
2022/07/13 13:05:58;;;;;;;;;;;;;;;;;;5035112;28;8502;-82
2022/07/13 13:08:27;;;;;;;;;;;;;;;;;;5031587;28;8656;-79
2022/07/13 13:10:52;;;;;;;;;;;;;;;;;;5041137;28;7017;-84
2022/07/13 13:13:18;;;;;;;;;;;;;;;;;;5047524;28;8389;-85
2022/07/13 13:15:44;;;;;;;;;;;;;;;;;;5045806;28;8701;-86
2022/07/13 13:18:10;;;;;;;;;;;;;;;;;;5038564;28;8617;-85
2022/07/13 13:20:35;;;;;;;;;;;;;;;;;;5042739;28;6880;-85
2022/07/13 13:23:01;;;;;;;;;;;;;;;;;;5045766;28;7260;-85
2022/07/13 13:25:26;;;;;;;;;;;;;;;;;;5043271;28;8468;-86
2022/07/13 13:27:52;;;;;;;;;;;;;;;;;;5039755;28;8509;-87
2022/07/13 13:33:02;;;;;;;;;;;;;;;;;;5058967;28;6884;-86
2022/07/13 13:35:27;;;;;;;;;;;;;;;;;;5036087;28;8607;-89
2022/07/13 13:37:53;;;;;;;;;;;;;;;;;;5034481;28;8707;-88
2022/07/13 13:40:19;;;;;;;;;;;;;;;;;;5033892;28;8554;-89
2022/07/13 13:42:44;;;;;;;;;;;;;;;;;;5036972;28;9074;-87
2022/07/13 13:45:10;;;;;;;;;;;;;;;;;;5035324;28;8459;-89
2022/07/13 13:47:36;;;;;;;;;;;;;;;;;;5034918;28;8554;-85
2022/07/13 13:50:02;;;;;;;;;;;;;;;;;;5037134;28;8505;-88
2022/07/13 13:52:27;;;;;;;;;;;;;;;;;;5037270;28;8374;-89
2022/07/13 13:54:53;;;;;;;;;;;;;;;;;;5027298;28;8789;-86
2022/07/13 13:57:18;;;;;;;;;;;;;;;;;;5035319;28;8497;-85
2022/07/13 13:59:44;;;;;;;;;;;;;;;;;;5034448;28;8476;-85
2022/07/13 14:02:09;;;;;;;;;;;;;;;;;;5035672;28;8595;-83
2022/07/13 14:04:34;;;;;;;;;;;;;;;;;;5035362;28;8541;-87
2022/07/13 14:07:03;;;;;;;;;;;;;;;;;;5036091;28;8656;-87
2022/07/13 14:09:29;;;;;;;;;;;;;;;;;;5035587;28;8480;-85
2022/07/13 14:11:54;;;;;;;;;;;;;;;;;;5037583;28;7406;-88
2022/07/13 14:14:19;;;;;;;;;;;;;;;;;;5034399;28;8548;-88
2022/07/13 14:16:45;;;;;;;;;;;;;;;;;;5034564;28;7098;-83
2022/07/13 14:19:10;;;;;;;;;;;;;;;;;;5033994;28;8622;-83
2022/07/13 14:21:36;;;;;;;;;;;;;;;;;;5033192;28;8437;-88
2022/07/13 14:24:01;;;;;;;;;;;;;;;;;;5033428;28;8765;-85
2022/07/13 14:26:27;;;;;;;;;;;;;;;;;;5029651;28;8479;-84
2022/07/13 14:28:52;;;;;;;;;;;;;;;;;;5031050;28;8574;-86
2022/07/13 14:31:18;;;;;;;;;;;;;;;;;;5034369;28;8473;-84
2022/07/13 14:33:43;;;;;;;;;;;;;;;;;;5034314;28;8485;-83
2022/07/13 14:36:09;;;;;;;;;;;;;;;;;;5035258;28;8511;-86
2022/07/13 14:38:35;;;;;;;;;;;;;;;;;;5036095;28;8555;-90
2022/07/13 14:41:01;;;;;;;;;;;;;;;;;;5035434;28;8609;-91
2022/07/13 14:43:26;;;;;;;;;;;;;;;;;;5038665;28;8583;-89
2022/07/13 14:45:52;;;;;;;;;;;;;;;;;;5038516;28;8539;-89
2022/07/13 14:48:17;;;;;;;;;;;;;;;;;;5038391;28;7123;-91
2022/07/13 14:50:43;;;;;;;;;;;;;;;;;;5038337;28;8888;-92
2022/07/13 14:53:09;;;;;;;;;;;;;;;;;;5040678;28;8478;-92
2022/07/13 14:55:34;;;;;;;;;;;;;;;;;;5040028;28;8522;-92
2022/07/13 14:58:00;;;;;;;;;;;;;;;;;;5039851;28;8497;-92
2022/07/13 15:00:26;;;;;;;;;;;;;;;;;;5038957;28;8512;-93
2022/07/13 15:02:54;;;;;;;;;;;;;;;;;;5038395;28;7152;-92
2022/07/13 15:05:20;;;;;;;;;;;;;;;;;;5038061;28;7167;-92
2022/07/13 15:07:45;;;;;;;;;;;;;;;;;;5038363;28;8933;-93
2022/07/13 15:10:13;;;;;;;;;;;;;;;;;;5037818;28;8778;-91
2022/07/13 15:12:38;;;;;;;;;;;;;;;;;;5037750;28;9085;-89
2022/07/13 15:15:05;;;;;;;;;;;;;;;;;;5038312;28;8776;-93
2022/07/13 15:17:32;;;;;;;;;;;;;;;;;;5038500;28;8457;-93
2022/07/13 15:19:59;;;;;;;;;;;;;;;;;;5038842;28;8834;-94
2022/07/13 15:22:25;;;;;;;;;;;;;;;;;;5049428;28;8911;-93
2022/07/13 15:24:52;;;;;;;;;;;;;;;;;;5041365;28;8438;-94
2022/07/13 15:27:23;;;;;;;;;;;;;;;;;;5046409;28;9003;-94
2022/07/13 15:29:49;;;;;;;;;;;;;;;;;;5044010;28;7178;-92
2022/07/13 15:32:15;;;;;;;;;;;;;;;;;;5034911;28;8452;-90
2022/07/13 15:34:41;;;;;;;;;;;;;;;;;;5046188;28;8458;-92
2022/07/13 15:48:39;;;;;;;;;;;;;;;;;;6153521;22;1513772;-55
2022/07/13 15:51:05;;;;;;;;;;;;;;;;;;6166640;23;7293;-55
2022/07/13 15:53:30;;;;;;;;;;;;;;;;;;6166163;23;7443;-55
2022/07/13 15:55:56;;;;;;;;;;;;;;;;;;6165668;23;7435;-55
2022/07/13 15:58:21;;;;;;;;;;;;;;;;;;6166343;23;7177;-55
2022/07/13 16:01:05;;;;;;;;;;;;;;;;;;6166357;23;7006;-55
2022/07/13 16:03:41;;;;;;;;;;;;;;;;;;6166024;23;8071;-55
2022/07/13 16:06:06;;;;;;;;;;;;;;;;;;6166206;23;7156;-55
2022/07/13 16:08:32;;;;;;;;;;;;;;;;;;6166149;23;7162;-55
2022/07/13 16:10:57;;;;;;;;;;;;;;;;;;6165795;23;7315;-55
2022/07/13 16:13:23;;;;;;;;;;;;;;;;;;6166051;23;7203;-55
2022/07/13 16:15:58;;;;;;;;;;;;;;;;;;6164854;23;7410;-55
2022/07/13 16:18:24;;;;;;;;;;;;;;;;;;6166174;23;7479;-55
2022/07/13 16:23:57;;;;;;;;;;;;;;;;;;6165361;23;7270;-55
2022/07/13 16:26:23;;;;;;;;;;;;;;;;;;6165737;23;7931;-55
2022/07/13 16:31:57;;;;;;;;;;;;;;;;;;6165437;23;6752;-55
2022/07/13 16:34:23;;;;;;;;;;;;;;;;;;6165790;23;7668;-54
2022/07/13 16:37:08;;;;;;;;;;;;;;;;;;6166014;23;7496;-55
2022/07/13 16:39:34;;;;;;;;;;;;;;;;;;6165366;23;7002;-55
2022/07/13 16:42:17;;;;;;;;;;;;;;;;;;6166429;23;7091;-55
2022/07/13 16:44:42;;;;;;;;;;;;;;;;;;6165212;23;7825;-55
2022/07/13 16:47:08;;;;;;;;;;;;;;;;;;6165296;23;7155;-55
2022/07/13 16:49:33;;;;;;;;;;;;;;;;;;6159000;23;7356;-56
2022/07/13 16:52:12;;;;;;;;;;;;;;;;;;6159400;23;7219;-58
2022/07/13 16:54:38;;;;;;;;;;;;;;;;;;6158879;23;7206;-52
2022/07/13 16:57:03;;;;;;;;;;;;;;;;;;6159249;23;7005;-59
2022/07/13 16:59:50;;;;;;;;;;;;;;;;;;6132869;23;8466;-53
2022/07/13 17:02:16;;;;;;;;;;;;;;;;;;6158756;23;7105;-55
2022/07/13 17:04:58;;;;;;;;;;;;;;;;;;6158278;23;7108;-53
2022/07/13 17:07:44;;;;;;;;;;;;;;;;;;6141500;23;7013;-54
2022/07/13 17:10:10;;;;;;;;;;;;;;;;;;6159062;23;7212;-55
2022/07/13 17:15:28;;;;;;;;;;;;;;;;;;6159121;23;7059;-55
2022/07/13 17:18:13;;;;;;;;;;;;;;;;;;6158931;23;7217;-55
2022/07/13 17:20:38;;;;;;;;;;;;;;;;;;6159263;23;7786;-55
2022/07/13 17:23:05;;;;;;;;;;;;;;;;;;6158122;23;7391;-54
2022/07/13 17:25:30;;;;;;;;;;;;;;;;;;6158266;23;7327;-54
2022/07/13 17:28:05;;;;;;;;;;;;;;;;;;6159048;23;7172;-54
2022/07/13 17:30:31;;;;;;;;;;;;;;;;;;6158897;23;7205;-53
2022/07/13 17:33:03;;;;;;;;;;;;;;;;;;6155206;23;7474;-53
2022/07/13 17:35:28;;;;;;;;;;;;;;;;;;6158667;23;7091;-52
2022/07/13 17:37:54;;;;;;;;;;;;;;;;;;6157498;23;7528;-54
2022/07/13 17:40:19;;;;;;;;;;;;;;;;;;6158214;23;7544;-54
2022/07/13 17:43:02;;;;;;;;;;;;;;;;;;6158928;23;7281;-55
2022/07/13 17:45:27;;;;;;;;;;;;;;;;;;6158105;23;7142;-53
2022/07/13 17:47:53;;;;;;;;;;;;;;;;;;6157418;23;7090;-53
2022/07/13 17:53:12;;;;;;;;;;;;;;;;;;6168883;23;7172;-54
2022/07/13 17:55:49;;;;;;;;;;;;;;;;;;6158374;23;7015;-53
2022/07/13 17:58:14;;;;;;;;;;;;;;;;;;6158704;23;6994;-54
2022/07/13 18:01:00;;;;;;;;;;;;;;;;;;6157891;23;7171;-54
2022/07/13 18:03:25;;;;;;;;;;;;;;;;;;6158816;23;7261;-54
2022/07/13 18:05:57;;;;;;;;;;;;;;;;;;6158597;23;7400;-58
2022/07/13 18:08:22;;;;;;;;;;;;;;;;;;6158256;23;7438;-53
2022/07/13 18:13:53;;;;;;;;;;;;;;;;;;6158194;23;6973;-53
2022/07/13 18:16:19;;;;;;;;;;;;;;;;;;6158191;23;6994;-54
2022/07/13 18:18:44;;;;;;;;;;;;;;;;;;6158222;23;6931;-54
2022/07/13 18:21:18;;;;;;;;;;;;;;;;;;6158529;23;7130;-53
2022/07/13 18:26:28;;;;;;;;;;;;;;;;;;6158517;23;6823;-58
2022/07/13 18:32:13;;;;;;;;;;;;;;;;;;6158084;23;6954;-58
2022/07/13 18:34:39;;;;;;;;;;;;;;;;;;6158238;23;7694;-58
2022/07/13 18:37:06;;;;;;;;;;;;;;;;;;6158095;23;6998;-58
2022/07/13 18:39:32;;;;;;;;;;;;;;;;;;6158211;23;7121;-58
2022/07/13 18:42:11;;;;;;;;;;;;;;;;;;6158077;23;7774;-58
2022/07/13 18:44:37;;;;;;;;;;;;;;;;;;6157983;23;7156;-58